Lexington, Oklahoma
Current Conditions -  °F | °C
As of 3:35 AM on Wednesday 22 Oct 2014 (Local Time) from KOUN Reporting Station
Clear Clear  
Wind Chill: 59°   Ceiling: Unl
Heat Index: 59°   Visibility: 10mi
Dew Point: 59°   Wind: 5mph
Humidity: 100%   Direction: 180°S
Pressure: 30.09"   Gusts: NA
Location:  35.01°N, 97.34°W
Report Text: KOUN 220835Z AUTO 18004KT 10SM CLR 15/15 A3009 RMK AO2
Loading
Personal Weather Stations






























Interactive Weather Map
Tropical Storm Tracking
New forecast layout! Learn more

10-Day Weather Forecast

Advertisements
Track Severe Weather on mobile